Las Vegas, Nevada
Traffic Map
Current Weather Conditions
Las Vegas, Nevada
Scattered Clouds
Scattered Clouds
24°
Feels Like: 24°
Wind Chill: 24° Ceiling: Unl
Heat Index: 24° Visibility: 10mi
Dew Point: -7° Wind: 5mph
Humidity: 13% Direction: 180° (S)
Pressure: 30.05in Gusts: 0mph
Raw Report DataKLAS 301856Z 18004KT 10SM SCT250 24/M07 A3005 RMK AO2 SLP160 T02391067
Traffic Incident Summary
Active as of:
Severity:
Category:
InformationThere was an issue retrieving the traffic information for this location. Please try a different location or try again shortly.
Advertisements
Track Severe Weather on mobile